createdAt,value
2022-09-06T00:00:18.784Z,91.70
2022-09-06T00:02:47.374Z,92.10
2022-09-06T00:05:16.811Z,92.60
2022-09-06T00:07:44.860Z,93.00
2022-09-06T00:10:12.855Z,93.20
2022-09-06T00:12:41.305Z,93.30
2022-09-06T00:15:10.162Z,93.00
2022-09-06T00:17:38.150Z,93.10
2022-09-06T00:20:09.229Z,93.20
2022-09-06T00:22:38.801Z,93.40
2022-09-06T00:25:08.210Z,94.00
2022-09-06T00:27:36.217Z,94.40
2022-09-06T00:30:06.005Z,94.50
2022-09-06T00:32:34.292Z,94.80
2022-09-06T00:35:02.269Z,95.00
2022-09-06T00:37:30.235Z,95.00
2022-09-06T00:39:59.549Z,95.40
2022-09-06T00:42:27.496Z,95.40
2022-09-06T00:44:55.541Z,96.20
2022-09-06T00:47:23.571Z,96.40
2022-09-06T00:49:55.698Z,96.50
2022-09-06T00:52:24.241Z,96.40
2022-09-06T00:54:53.081Z,96.30
2022-09-06T00:57:26.949Z,96.10
2022-09-06T00:59:56.745Z,96.40
2022-09-06T01:02:24.841Z,95.90
2022-09-06T01:04:53.319Z,96.50
2022-09-06T01:07:33.094Z,97.20
2022-09-06T01:10:24.894Z,97.50
2022-09-06T01:13:04.444Z,97.90
2022-09-06T01:15:42.019Z,98.60
2022-09-06T01:18:25.102Z,99.60
2022-09-06T01:21:10.593Z,99.90
2022-09-06T01:24:04.551Z,99.90
2022-09-06T01:27:07.592Z,99.80
2022-09-06T01:29:44.585Z,99.90
2022-09-06T01:32:21.653Z,99.90
2022-09-06T01:34:55.212Z,99.90
2022-09-06T01:37:24.695Z,99.90
2022-09-06T01:39:52.699Z,99.90
2022-09-06T01:42:24.313Z,99.90
2022-09-06T01:44:56.675Z,99.90
2022-09-06T01:47:37.900Z,99.90
2022-09-06T01:50:35.262Z,99.90
2022-09-06T01:53:11.408Z,99.70
2022-09-06T01:55:45.609Z,99.30
2022-09-06T01:58:33.685Z,99.50
2022-09-06T02:01:06.937Z,99.90
2022-09-06T02:03:42.782Z,99.90
2022-09-06T02:06:16.762Z,99.90
2022-09-06T02:08:49.098Z,99.90
2022-09-06T02:11:17.674Z,99.00
2022-09-06T02:13:50.712Z,97.50
2022-09-06T02:16:23.850Z,96.90
2022-09-06T02:18:55.685Z,96.10
2022-09-06T02:21:28.964Z,95.10
2022-09-06T02:23:58.956Z,94.40
2022-09-06T02:26:29.476Z,94.30
2022-09-06T02:28:58.283Z,93.60
2022-09-06T02:31:31.385Z,92.60
2022-09-06T02:34:00.318Z,91.90
2022-09-06T02:36:28.376Z,91.50
2022-09-06T02:38:57.152Z,91.40
2022-09-06T02:41:26.006Z,91.30
2022-09-06T02:43:53.981Z,91.20
2022-09-06T02:46:23.665Z,91.30
2022-09-06T02:48:53.177Z,91.50
2022-09-06T02:51:21.150Z,91.90
2022-09-06T02:53:49.200Z,92.30
2022-09-06T02:56:17.139Z,92.40
2022-09-06T02:58:45.248Z,92.30
2022-09-06T03:01:13.233Z,92.70
2022-09-06T03:03:41.184Z,92.90
2022-09-06T03:06:10.536Z,93.50
2022-09-06T03:08:38.484Z,93.60
2022-09-06T03:11:06.444Z,93.60
2022-09-06T03:13:34.412Z,93.70
2022-09-06T03:16:02.480Z,93.60
2022-09-06T03:18:32.317Z,93.40
2022-09-06T03:21:00.748Z,93.30
2022-09-06T03:23:30.791Z,92.80
2022-09-06T03:25:58.978Z,93.10
2022-09-06T03:28:27.768Z,93.30
2022-09-06T03:30:55.972Z,93.50
2022-09-06T03:33:24.054Z,93.70
2022-09-06T03:35:53.522Z,93.70
2022-09-06T03:38:23.402Z,94.20
2022-09-06T03:40:53.230Z,94.30
2022-09-06T03:43:22.973Z,94.40
2022-09-06T03:45:53.217Z,94.80
2022-09-06T03:48:25.027Z,94.90
2022-09-06T03:50:55.140Z,94.90
2022-09-06T03:53:24.695Z,95.10
2022-09-06T03:55:55.633Z,95.40
2022-09-06T03:58:24.704Z,96.10
2022-09-06T04:01:01.645Z,96.50
2022-09-06T04:03:29.593Z,96.50
2022-09-06T04:05:57.564Z,96.90
2022-09-06T04:08:25.667Z,97.10
2022-09-06T04:10:56.650Z,97.10
2022-09-06T04:13:25.771Z,97.20
2022-09-06T04:15:54.031Z,97.30
2022-09-06T04:18:22.652Z,97.70
2022-09-06T04:20:52.158Z,97.80
2022-09-06T04:23:20.798Z,97.70
2022-09-06T04:25:49.607Z,97.20
2022-09-06T04:28:19.831Z,97.10
2022-09-06T04:30:54.266Z,97.10
2022-09-06T04:33:25.740Z,97.40
2022-09-06T04:35:54.152Z,97.50
2022-09-06T04:38:22.134Z,97.30
2022-09-06T04:40:50.220Z,97.60
2022-09-06T04:43:19.771Z,97.70
2022-09-06T04:45:47.895Z,98.00
2022-09-06T04:48:16.004Z,98.40
2022-09-06T04:50:43.955Z,98.10
2022-09-06T04:53:11.935Z,97.80
2022-09-06T04:55:39.855Z,97.80
2022-09-06T04:58:08.065Z,98.10
2022-09-06T05:00:38.728Z,98.30
2022-09-06T05:03:06.715Z,98.00
2022-09-06T05:05:34.641Z,97.80
2022-09-06T05:08:02.660Z,97.30
2022-09-06T05:10:30.927Z,97.40
2022-09-06T05:12:58.875Z,97.40
2022-09-06T05:15:26.875Z,97.10
2022-09-06T05:18:03.735Z,96.80
2022-09-06T05:20:31.854Z,96.90
2022-09-06T05:22:59.921Z,97.30
2022-09-06T05:25:27.819Z,97.20
2022-09-06T05:27:55.702Z,97.20
2022-09-06T05:30:23.623Z,97.30
2022-09-06T05:32:52.255Z,97.00
2022-09-06T05:35:21.491Z,96.80
2022-09-06T05:37:49.358Z,96.90
2022-09-06T05:40:17.452Z,97.00
2022-09-06T05:42:45.355Z,97.00
2022-09-06T05:45:13.283Z,96.90
2022-09-06T05:47:41.249Z,96.80
2022-09-06T05:50:09.993Z,95.80
2022-09-06T05:52:39.654Z,95.30
2022-09-06T05:55:08.409Z,95.20
2022-09-06T05:57:36.331Z,95.80
2022-09-06T06:00:05.850Z,96.10
2022-09-06T06:02:33.797Z,96.10
2022-09-06T06:05:02.117Z,96.40
2022-09-06T06:07:30.326Z,96.40
2022-09-06T06:09:59.600Z,96.40
2022-09-06T06:12:27.478Z,96.20
2022-09-06T06:15:05.719Z,95.90
2022-09-06T06:17:33.787Z,95.50
2022-09-06T06:20:01.735Z,95.00
2022-09-06T06:22:29.624Z,94.80
2022-09-06T06:24:58.871Z,95.20
2022-09-06T06:27:26.784Z,95.70
2022-09-06T06:29:54.680Z,95.60
2022-09-06T06:32:22.602Z,94.40
2022-09-06T06:34:50.483Z,93.40
2022-09-06T06:37:18.574Z,92.30
2022-09-06T06:39:46.648Z,91.40
2022-09-06T06:42:16.357Z,89.20
2022-09-06T06:44:44.557Z,81.50
2022-09-06T06:47:12.417Z,77.90
2022-09-06T06:49:40.474Z,74.90
2022-09-06T06:52:08.379Z,73.30
2022-09-06T06:54:37.375Z,67.40
2022-09-06T06:57:06.032Z,65.70
2022-09-06T06:59:35.315Z,64.30
2022-09-06T07:02:03.339Z,62.50
2022-09-06T07:04:31.328Z,61.70
2022-09-06T07:12:35.496Z,56.50
2022-09-06T07:15:05.218Z,51.60
2022-09-06T07:17:33.310Z,47.70
2022-09-06T07:20:16.923Z,42.00
2022-09-06T07:22:44.859Z,42.80
2022-09-06T07:25:20.388Z,42.10
2022-09-06T07:27:49.949Z,41.00
2022-09-06T07:30:20.608Z,37.20
2022-09-06T07:32:48.658Z,35.20
2022-09-06T07:35:16.851Z,34.40
2022-09-06T07:37:44.789Z,32.50
2022-09-06T07:40:12.897Z,26.90
2022-09-06T07:42:40.930Z,26.10
2022-09-06T07:45:23.383Z,26.20
2022-09-06T07:50:47.273Z,24.20
2022-09-06T07:53:24.619Z,23.10
2022-09-06T07:55:58.525Z,22.60
2022-09-06T07:58:26.451Z,21.60
2022-09-06T08:01:11.754Z,22.40
2022-09-06T08:03:39.758Z,21.90
2022-09-06T08:08:59.212Z,20.20
2022-09-06T08:11:29.500Z,19.70
2022-09-06T08:13:58.864Z,19.50
2022-09-06T08:16:29.923Z,20.50
2022-09-06T08:18:59.283Z,20.60
2022-09-06T08:21:29.148Z,19.30
2022-09-06T08:23:59.980Z,18.50
2022-09-06T08:26:28.870Z,18.10
2022-09-06T08:28:58.887Z,16.20
2022-09-06T08:31:29.759Z,16.10
2022-09-06T08:33:58.603Z,16.10
2022-09-06T08:36:29.539Z,15.30
2022-09-06T08:38:59.921Z,14.60
2022-09-06T08:41:30.259Z,14.20
2022-09-06T08:46:56.783Z,12.90
2022-09-06T08:49:26.695Z,12.20
2022-09-06T08:52:18.208Z,11.90
2022-09-06T08:54:52.712Z,11.50
2022-09-06T08:57:40.259Z,11.50
2022-09-06T09:00:13.199Z,10.70
2022-09-06T09:02:47.579Z,10.00
2022-09-06T09:05:23.222Z,10.50
2022-09-06T09:08:01.540Z,10.70
2022-09-06T09:10:32.582Z,10.40
2022-09-06T09:13:03.397Z,10.30
2022-09-06T09:15:40.406Z,10.00
2022-09-06T09:18:09.952Z,10.10
2022-09-06T09:20:38.986Z,10.30
2022-09-06T09:23:07.007Z,10.30
2022-09-06T09:25:36.386Z,10.00
2022-09-06T09:28:16.246Z,10.10
2022-09-06T09:30:50.792Z,10.10
2022-09-06T09:33:25.598Z,10.50
2022-09-06T09:35:54.138Z,10.40
2022-09-06T09:38:24.566Z,10.90
2022-09-06T09:40:55.081Z,10.70
2022-09-06T09:43:24.860Z,10.90
2022-09-06T09:46:10.828Z,10.10
2022-09-06T09:48:41.478Z,10.10
2022-09-06T09:51:27.441Z,10.70
2022-09-06T09:53:57.318Z,11.20
2022-09-06T09:56:31.663Z,10.30
2022-09-06T09:59:00.391Z,10.90
2022-09-06T10:01:31.458Z,10.80
2022-09-06T10:07:10.280Z,8.90
2022-09-06T10:09:41.277Z,9.10
2022-09-06T10:12:09.397Z,9.30
2022-09-06T10:14:49.442Z,8.70
2022-09-06T10:17:23.174Z,7.60
2022-09-06T10:19:52.432Z,7.70
2022-09-06T10:22:32.778Z,7.30
2022-09-06T10:25:37.281Z,8.70
2022-09-06T10:28:25.746Z,8.70
2022-09-06T10:31:03.481Z,9.10
2022-09-06T10:33:40.400Z,9.10
2022-09-06T10:36:09.715Z,8.90
2022-09-06T10:38:49.332Z,8.90
2022-09-06T10:41:32.891Z,8.90
2022-09-06T10:44:10.981Z,8.90
2022-09-06T10:46:41.653Z,7.80
2022-09-06T10:49:15.668Z,9.40
2022-09-06T10:51:50.077Z,9.70
2022-09-06T10:54:22.005Z,9.80
2022-09-06T10:56:54.814Z,10.80
2022-09-06T11:02:15.190Z,11.10
2022-09-06T11:07:38.134Z,11.50
2022-09-06T11:10:13.870Z,11.50
2022-09-06T11:12:47.373Z,11.30
2022-09-06T11:15:17.495Z,13.00
2022-09-06T11:17:52.497Z,12.20
2022-09-06T11:20:29.905Z,12.50
2022-09-06T11:23:28.636Z,12.30
2022-09-06T11:26:30.102Z,13.50
2022-09-06T11:29:00.323Z,14.60
2022-09-06T11:34:23.042Z,16.00
2022-09-06T11:36:53.198Z,16.00
2022-09-06T11:43:04.237Z,15.40
2022-09-06T11:45:46.583Z,15.40
2022-09-06T11:48:49.917Z,15.80
2022-09-06T11:51:35.550Z,17.00
2022-09-06T11:54:21.738Z,17.60
2022-09-06T11:56:55.989Z,18.20
2022-09-06T11:59:42.527Z,18.10
2022-09-06T12:02:37.475Z,20.10
2022-09-06T12:05:16.790Z,20.20
2022-09-06T12:08:34.088Z,21.60
2022-09-06T12:11:07.640Z,23.80
2022-09-06T12:13:41.644Z,26.80
2022-09-06T12:16:11.438Z,35.90
2022-09-06T12:19:43.442Z,49.90
2022-09-06T12:22:52.106Z,37.60
2022-09-06T12:25:21.466Z,35.30
2022-09-06T12:27:56.364Z,36.30
2022-09-06T12:30:37.226Z,38.50
2022-09-06T12:33:08.587Z,50.50
2022-09-06T12:38:25.520Z,49.70
2022-09-06T12:40:58.878Z,46.90
2022-09-06T12:43:27.507Z,24.10
2022-09-06T12:45:55.470Z,27.20
2022-09-06T12:48:28.953Z,39.40
2022-09-06T12:51:06.640Z,40.00
2022-09-06T12:53:35.562Z,44.90
2022-09-06T12:56:05.682Z,35.40
2022-09-06T12:58:33.751Z,33.90
2022-09-06T13:01:07.415Z,50.20
2022-09-06T13:03:39.365Z,60.40
2022-09-06T13:06:12.768Z,60.70
2022-09-06T13:08:47.545Z,57.70
2022-09-06T13:11:18.780Z,60.40
2022-09-06T13:13:49.891Z,62.10
2022-09-06T13:16:23.354Z,58.40
2022-09-06T13:18:51.808Z,51.00
2022-09-06T13:21:30.188Z,52.90
2022-09-06T13:23:59.047Z,60.40
2022-09-06T13:26:38.066Z,61.80
2022-09-06T13:29:30.459Z,60.00
2022-09-06T13:31:59.790Z,68.00
2022-09-06T13:34:29.141Z,73.50
2022-09-06T13:37:02.427Z,76.20
2022-09-06T13:39:32.920Z,79.20
2022-09-06T13:42:07.490Z,80.60
2022-09-06T13:44:36.579Z,80.70
2022-09-06T13:47:04.761Z,83.70
2022-09-06T13:49:33.791Z,84.60
2022-09-06T13:52:05.268Z,84.00
2022-09-06T13:54:34.131Z,85.80
2022-09-06T13:57:02.578Z,87.30
2022-09-06T13:59:31.201Z,88.10
2022-09-06T14:02:03.192Z,87.80
2022-09-06T14:04:31.985Z,90.00
2022-09-06T14:07:00.429Z,90.00
2022-09-06T14:09:30.210Z,90.80
2022-09-06T14:11:58.485Z,92.40
2022-09-06T14:14:26.439Z,94.50
2022-09-06T14:16:54.780Z,95.20
2022-09-06T14:19:23.146Z,96.20
2022-09-06T14:21:51.119Z,99.80
2022-09-06T14:24:19.005Z,99.90
2022-09-06T14:26:48.757Z,99.90
2022-09-06T14:29:16.796Z,99.90
2022-09-06T14:31:44.806Z,96.80
2022-09-06T14:34:12.774Z,89.20
2022-09-06T14:36:40.852Z,89.10
2022-09-06T14:39:08.785Z,91.20
2022-09-06T14:41:36.687Z,94.60
2022-09-06T14:44:05.938Z,96.50
2022-09-06T14:46:33.837Z,96.40
2022-09-06T14:49:03.996Z,96.70
2022-09-06T14:51:31.995Z,97.00
2022-09-06T14:54:03.559Z,97.00
2022-09-06T14:56:31.609Z,97.70
2022-09-06T14:59:00.373Z,97.40
2022-09-06T15:01:37.141Z,97.00
2022-09-06T15:04:09.244Z,98.80
2022-09-06T15:06:40.155Z,99.50
2022-09-06T15:09:10.152Z,98.80
2022-09-06T15:11:42.586Z,99.90
2022-09-06T15:14:15.521Z,99.90
2022-09-06T15:16:45.458Z,98.80
2022-09-06T15:19:13.576Z,97.00
2022-09-06T15:21:42.207Z,97.80
2022-09-06T15:24:12.183Z,95.50
2022-09-06T15:26:40.883Z,93.50
2022-09-06T15:29:09.548Z,92.20
2022-09-06T15:31:38.334Z,92.10
2022-09-06T15:38:34.717Z,92.50
2022-09-06T15:41:08.201Z,91.70
2022-09-06T15:43:37.890Z,91.40
2022-09-06T15:46:06.071Z,92.10
2022-09-06T15:48:44.023Z,94.50
2022-09-06T15:51:13.566Z,97.00
2022-09-06T15:53:43.397Z,98.20
2022-09-06T15:56:14.525Z,98.20
2022-09-06T15:58:42.498Z,97.00
2022-09-06T16:01:12.205Z,95.40
2022-09-06T16:03:42.248Z,94.90
2022-09-06T16:06:28.473Z,95.20
2022-09-06T16:08:59.718Z,94.60
2022-09-06T16:11:28.497Z,94.10
2022-09-06T16:13:57.019Z,94.60
2022-09-06T16:16:25.004Z,94.90
2022-09-06T16:18:53.135Z,94.90
2022-09-06T16:21:24.856Z,95.00
2022-09-06T16:23:55.979Z,94.10
2022-09-06T16:26:26.968Z,94.10
2022-09-06T16:28:55.349Z,94.50
2022-09-06T16:31:24.049Z,94.90
2022-09-06T16:33:53.681Z,94.70
2022-09-06T16:36:22.605Z,95.10
2022-09-06T16:38:50.602Z,96.10
2022-09-06T16:41:20.961Z,96.70
2022-09-06T16:43:53.083Z,97.40
2022-09-06T16:46:22.923Z,98.00
2022-09-06T16:48:52.566Z,98.60
2022-09-06T16:51:22.904Z,99.30
2022-09-06T16:53:51.974Z,99.40
2022-09-06T16:56:21.903Z,99.50
2022-09-06T16:58:55.994Z,99.90
2022-09-06T17:01:24.746Z,99.90
2022-09-06T17:03:53.226Z,99.90
2022-09-06T17:06:22.947Z,99.90
2022-09-06T17:08:51.922Z,99.90
2022-09-06T17:11:21.548Z,99.90
2022-09-06T17:13:53.283Z,99.90
2022-09-06T17:16:40.285Z,99.90
2022-09-06T17:19:08.942Z,99.90
2022-09-06T17:21:39.112Z,99.90
2022-09-06T17:24:07.845Z,99.90
2022-09-06T17:26:38.015Z,99.90
2022-09-06T17:29:07.790Z,99.90
2022-09-06T17:31:35.872Z,99.90
2022-09-06T17:34:03.899Z,99.90
2022-09-06T17:36:32.931Z,99.90
2022-09-06T17:39:02.409Z,99.90
2022-09-06T17:41:36.518Z,99.90
2022-09-06T17:44:05.603Z,99.90
2022-09-06T17:46:34.916Z,99.90
2022-09-06T17:49:04.921Z,99.90
2022-09-06T17:51:33.426Z,99.90
2022-09-06T17:54:01.534Z,99.90
2022-09-06T17:56:30.341Z,99.90
2022-09-06T17:59:00.222Z,99.90
2022-09-06T18:01:33.936Z,99.90
2022-09-06T18:04:05.060Z,99.90
2022-09-06T18:06:34.226Z,99.90
2022-09-06T18:09:06.033Z,99.90
2022-09-06T18:11:34.866Z,99.90
2022-09-06T18:14:04.833Z,99.90
2022-09-06T18:16:34.705Z,99.90
2022-09-06T18:19:05.934Z,99.90
2022-09-06T18:21:35.955Z,99.90
2022-09-06T18:24:04.852Z,99.90
2022-09-06T18:26:32.748Z,99.90
2022-09-06T18:29:01.075Z,99.90
2022-09-06T18:31:29.520Z,99.90
2022-09-06T18:33:58.960Z,99.90
2022-09-06T18:36:31.924Z,99.90
2022-09-06T18:39:02.947Z,99.90
2022-09-06T18:41:45.025Z,99.90
2022-09-06T18:44:12.998Z,99.90
2022-09-06T18:46:40.908Z,99.90
2022-09-06T18:49:08.935Z,99.90
2022-09-06T18:51:40.620Z,99.90
2022-09-06T18:54:09.065Z,99.90
2022-09-06T18:56:38.146Z,99.90
2022-09-06T18:59:08.802Z,99.90
2022-09-06T19:01:36.991Z,99.90
2022-09-06T19:04:06.213Z,99.90
2022-09-06T19:06:35.634Z,99.90
2022-09-06T19:09:07.511Z,99.90
2022-09-06T19:11:36.317Z,99.90
2022-09-06T19:14:05.080Z,99.90
2022-09-06T19:16:33.599Z,99.90
2022-09-06T19:19:03.640Z,99.90
2022-09-06T19:21:31.607Z,99.90
2022-09-06T19:24:01.066Z,99.90
2022-09-06T19:26:32.318Z,99.90
2022-09-06T19:29:02.006Z,99.90
2022-09-06T19:31:33.353Z,99.90
2022-09-06T19:34:02.422Z,99.90
2022-09-06T19:36:31.875Z,99.90
2022-09-06T19:39:04.801Z,99.90
2022-09-06T19:41:36.606Z,99.90
2022-09-06T19:44:07.733Z,99.90
2022-09-06T19:46:36.320Z,99.90
2022-09-06T19:49:08.066Z,99.90
2022-09-06T19:51:36.604Z,99.90
2022-09-06T19:54:05.241Z,99.90
2022-09-06T19:56:36.065Z,99.90
2022-09-06T19:59:06.176Z,99.90
2022-09-06T20:01:36.803Z,99.90
2022-09-06T20:04:06.942Z,99.90
2022-09-06T20:06:35.401Z,99.90
2022-09-06T20:09:05.446Z,99.90
2022-09-06T20:11:36.043Z,99.90
2022-09-06T20:14:03.988Z,99.90
2022-09-06T20:16:32.290Z,99.90
2022-09-06T20:19:00.495Z,99.90
2022-09-06T20:21:29.533Z,99.90
2022-09-06T20:23:59.142Z,99.90
2022-09-06T20:26:28.969Z,99.90
2022-09-06T20:29:00.513Z,99.90
2022-09-06T20:31:31.220Z,99.90
2022-09-06T20:34:03.190Z,99.90
2022-09-06T20:36:31.163Z,99.90
2022-09-06T20:38:59.108Z,99.90
2022-09-06T20:41:27.902Z,99.90
2022-09-06T20:43:58.983Z,99.90
2022-09-06T20:46:30.909Z,99.90
2022-09-06T20:49:03.476Z,99.90
2022-09-06T20:51:32.478Z,99.90
2022-09-06T20:54:01.653Z,99.90
2022-09-06T20:56:31.706Z,99.90
2022-09-06T20:59:02.847Z,99.90
2022-09-06T21:01:35.648Z,99.90
2022-09-06T21:04:06.186Z,99.90
2022-09-06T21:06:36.021Z,99.90
2022-09-06T21:09:05.430Z,99.90
2022-09-06T21:11:33.346Z,99.90
2022-09-06T21:14:03.257Z,99.90
2022-09-06T21:16:31.543Z,99.90
2022-09-06T21:19:01.799Z,99.90
2022-09-06T21:21:32.192Z,99.90
2022-09-06T21:24:01.638Z,99.90
2022-09-06T21:26:29.766Z,99.90
2022-09-06T21:28:58.187Z,99.90
2022-09-06T21:31:29.397Z,99.90
2022-09-06T21:33:59.114Z,99.90
2022-09-06T21:36:29.341Z,99.90
2022-09-06T21:38:59.142Z,99.90
2022-09-06T21:41:28.632Z,99.90
2022-09-06T21:43:58.207Z,99.90
2022-09-06T21:46:32.660Z,99.90
2022-09-06T21:49:02.709Z,99.90
2022-09-06T21:51:30.933Z,99.90
2022-09-06T21:53:59.688Z,99.90
2022-09-06T21:56:27.666Z,99.90
2022-09-06T21:58:57.570Z,99.90
2022-09-06T22:01:28.193Z,99.90
2022-09-06T22:03:56.386Z,99.90
2022-09-06T22:06:26.489Z,99.90
2022-09-06T22:08:54.505Z,99.90
2022-09-06T22:11:24.656Z,99.90
2022-09-06T22:13:52.949Z,99.90
2022-09-06T22:16:22.686Z,99.90
2022-09-06T22:18:52.059Z,99.90
2022-09-06T22:21:21.415Z,99.90
2022-09-06T22:23:53.607Z,99.90
2022-09-06T22:26:22.029Z,99.90
2022-09-06T22:28:54.634Z,99.90
2022-09-06T22:31:23.215Z,99.90
2022-09-06T22:33:52.487Z,99.90
2022-09-06T22:36:20.730Z,99.90
2022-09-06T22:38:48.736Z,99.90
2022-09-06T22:41:16.590Z,99.90
2022-09-06T22:43:44.487Z,99.90
2022-09-06T22:46:12.657Z,99.90
2022-09-06T22:48:41.052Z,99.90
2022-09-06T22:51:10.313Z,99.90
2022-09-06T22:53:39.204Z,99.90
2022-09-06T22:56:07.396Z,99.90
2022-09-06T22:58:36.088Z,99.90
2022-09-06T23:01:08.974Z,99.90
2022-09-06T23:03:37.082Z,99.90
2022-09-06T23:06:05.548Z,99.90
2022-09-06T23:08:35.938Z,99.90
2022-09-06T23:11:07.126Z,99.90
2022-09-06T23:13:35.422Z,99.90
2022-09-06T23:16:05.067Z,99.90
2022-09-06T23:18:33.396Z,99.90
2022-09-06T23:21:06.157Z,99.90
2022-09-06T23:23:35.784Z,99.90
2022-09-06T23:26:08.233Z,99.90
2022-09-06T23:28:36.464Z,99.90
2022-09-06T23:31:05.131Z,99.90
2022-09-06T23:33:35.021Z,99.90
2022-09-06T23:36:03.182Z,99.90
2022-09-06T23:38:33.217Z,99.90
2022-09-06T23:41:03.193Z,99.90
2022-09-06T23:43:31.442Z,99.90
2022-09-06T23:45:59.687Z,99.90
2022-09-06T23:48:27.633Z,99.90
2022-09-06T23:50:55.524Z,99.90
2022-09-06T23:53:23.502Z,99.90
2022-09-06T23:55:51.414Z,99.90
2022-09-06T23:58:20.926Z,99.90
